Time;durP1;ratioP1;P1;durP2;ratioP2;P2;SDS_P1;SDS_P2;PMS_P1;PMS_P2;Temp;Humidity;BMP_temperature;BMP_pressure;BME280_temperature;BME280_humidity;BME280_pressure;Samples;Min_cycle;Max_cycle;Signal;HPM_P1;HPM_P2
2023/10/19 00:00:39;;;;;;;29.10;16.48;;;2.50;99.90;;;;;;5054097;28;20111;-76
2023/10/19 00:03:08;;;;;;;30.23;17.00;;;2.60;99.90;;;;;;5052130;28;20029;-76
2023/10/19 00:05:34;;;;;;;27.58;16.45;;;2.60;99.90;;;;;;5052245;28;20017;-78
2023/10/19 00:08:05;;;;;;;28.42;17.30;;;2.60;99.90;;;;;;5053513;28;20566;-79
2023/10/19 00:10:35;;;;;;;28.95;16.25;;;2.60;99.90;;;;;;5053932;28;20013;-76
2023/10/19 00:13:08;;;;;;;34.65;18.85;;;2.60;99.90;;;;;;5052032;28;20067;-76
2023/10/19 00:15:40;;;;;;;36.17;18.92;;;2.60;99.90;;;;;;5052223;28;20039;-76
2023/10/19 00:18:32;;;;;;;34.15;17.17;;;2.50;99.90;;;;;;5052180;28;20021;-79
2023/10/19 00:21:28;;;;;;;28.63;16.30;;;2.50;99.90;;;;;;5047855;28;20025;-79
2023/10/19 00:23:48;;;;;;;27.35;15.70;;;2.50;99.90;;;;;;5049848;28;20392;-80
2023/10/19 00:26:19;;;;;;;28.48;17.50;;;2.50;99.90;;;;;;5052062;28;20025;-75
2023/10/19 00:28:46;;;;;;;27.17;14.60;;;2.40;99.90;;;;;;5053466;28;20048;-76
2023/10/19 00:31:15;;;;;;;28.63;15.05;;;2.50;99.90;;;;;;5051864;28;20021;-80
2023/10/19 00:33:41;;;;;;;28.00;15.30;;;2.50;99.90;;;;;;5052484;28;20593;-80
2023/10/19 00:36:13;;;;;;;27.33;15.88;;;2.50;99.90;;;;;;5052953;28;20124;-79
2023/10/19 00:38:40;;;;;;;30.42;15.68;;;2.50;99.90;;;;;;5055055;28;20024;-77
2023/10/19 00:43:44;;;;;;;32.30;17.25;;;2.60;99.90;;;;;;5053334;28;20040;-80
2023/10/19 00:46:20;;;;;;;27.08;15.88;;;2.60;99.90;;;;;;5051891;28;20171;-79
2023/10/19 00:48:57;;;;;;;26.35;15.30;;;2.60;99.90;;;;;;5052738;28;20196;-76
2023/10/19 00:54:10;;;;;;;23.73;15.77;;;2.60;99.90;;;;;;5053292;28;20087;-78
2023/10/19 00:56:37;;;;;;;27.98;15.10;;;2.60;99.90;;;;;;5059434;28;20041;-77
2023/10/19 00:59:19;;;;;;;26.50;16.17;;;2.60;99.90;;;;;;5051643;28;20027;-79
2023/10/19 01:01:48;;;;;;;33.85;17.38;;;2.50;99.90;;;;;;5051019;28;20561;-79
2023/10/19 01:04:15;;;;;;;31.20;16.50;;;2.50;99.90;;;;;;5051244;28;20074;-79
2023/10/19 01:06:58;;;;;;;30.05;17.00;;;2.50;99.90;;;;;;5052630;28;20017;-79
2023/10/19 01:09:27;;;;;;;31.02;17.25;;;2.60;99.90;;;;;;5052985;28;20028;-79
2023/10/19 01:11:53;;;;;;;30.15;17.45;;;2.60;99.90;;;;;;5053962;28;20028;-76
2023/10/19 01:14:23;;;;;;;31.20;16.30;;;2.50;99.90;;;;;;5052366;28;20017;-79
2023/10/19 01:16:49;;;;;;;30.77;16.98;;;2.50;99.90;;;;;;5050439;28;20028;-79
2023/10/19 01:19:18;;;;;;;31.13;16.70;;;2.50;99.90;;;;;;5051044;28;20470;-78
2023/10/19 01:21:52;;;;;;;32.13;16.98;;;2.50;99.90;;;;;;5051381;28;20028;-76
2023/10/19 01:24:26;;;;;;;30.65;16.17;;;2.50;99.90;;;;;;5052488;28;20141;-78
2023/10/19 01:26:55;;;;;;;28.00;16.75;;;2.40;99.90;;;;;;5051208;28;20529;-76
2023/10/19 01:29:26;;;;;;;29.00;16.15;;;2.40;99.90;;;;;;5052315;28;20546;-76
2023/10/19 01:32:15;;;;;;;31.92;16.45;;;2.30;99.90;;;;;;5051044;28;20083;-76
2023/10/19 01:34:38;;;;;;;29.65;16.83;;;2.30;99.90;;;;;;5044711;28;20033;-76
2023/10/19 01:37:04;;;;;;;35.92;17.75;;;2.20;99.90;;;;;;5051245;28;20040;-77
2023/10/19 01:39:36;;;;;;;28.50;15.68;;;2.20;99.90;;;;;;5051042;28;20021;-75
2023/10/19 01:42:04;;;;;;;32.50;18.02;;;2.10;99.90;;;;;;5051216;28;20025;-75
2023/10/19 01:44:30;;;;;;;29.90;16.55;;;2.10;99.90;;;;;;5050955;28;20048;-76
2023/10/19 01:46:56;;;;;;;26.88;16.02;;;2.10;99.90;;;;;;5057310;28;20036;-79
2023/10/19 01:49:28;;;;;;;28.15;14.98;;;2.10;99.90;;;;;;5051921;28;20116;-76
2023/10/19 01:51:54;;;;;;;27.13;17.73;;;2.00;99.90;;;;;;5051116;28;20029;-76
2023/10/19 01:54:24;;;;;;;31.83;18.73;;;2.00;99.90;;;;;;5052326;28;20267;-79
2023/10/19 01:56:56;;;;;;;31.67;16.90;;;2.00;99.90;;;;;;5052273;28;20029;-79
2023/10/19 01:59:24;;;;;;;31.63;17.45;;;2.00;99.90;;;;;;5052302;28;20021;-80
2023/10/19 02:01:51;;;;;;;29.77;17.95;;;2.00;99.90;;;;;;5047587;28;20044;-76
2023/10/19 02:04:17;;;;;;;35.65;17.83;;;2.00;99.90;;;;;;5051630;28;20099;-78
2023/10/19 02:06:46;;;;;;;31.23;18.65;;;2.00;99.90;;;;;;5043738;28;20021;-78
2023/10/19 02:11:41;;;;;;;31.60;18.33;;;2.00;99.90;;;;;;5043770;28;20067;-77
2023/10/19 02:14:14;;;;;;;33.00;18.98;;;2.00;99.90;;;;;;5050875;28;20490;-76
2023/10/19 02:16:56;;;;;;;30.77;18.92;;;2.00;99.90;;;;;;5052990;28;20037;-79
2023/10/19 02:19:24;;;;;;;32.22;18.33;;;2.00;99.90;;;;;;5052064;28;20538;-76
2023/10/19 02:21:52;;;;;;;30.75;19.02;;;2.00;99.90;;;;;;5052124;28;20052;-80
2023/10/19 02:24:19;;;;;;;28.73;17.42;;;2.00;99.90;;;;;;5051730;28;20036;-80
2023/10/19 02:26:51;;;;;;;30.90;17.95;;;2.00;99.90;;;;;;5047701;28;20384;-76
2023/10/19 02:29:18;;;;;;;29.23;17.65;;;2.00;99.90;;;;;;5054055;28;20032;-76
2023/10/19 02:31:44;;;;;;;30.40;18.90;;;1.90;99.90;;;;;;5050192;28;20104;-80
2023/10/19 02:34:15;;;;;;;29.92;18.70;;;1.90;99.90;;;;;;5052756;28;20108;-80
2023/10/19 02:36:42;;;;;;;32.47;17.42;;;1.90;99.90;;;;;;5044010;28;20064;-79
2023/10/19 02:39:11;;;;;;;28.92;16.98;;;1.90;99.90;;;;;;5052903;28;20017;-75
2023/10/19 02:41:43;;;;;;;37.30;20.33;;;1.80;99.90;;;;;;5053660;28;20021;-78
2023/10/19 02:46:46;;;;;;;30.77;18.15;;;1.80;99.90;;;;;;5058534;28;20032;-75
2023/10/19 02:49:15;;;;;;;33.28;17.58;;;1.80;99.90;;;;;;5052742;28;20068;-76
2023/10/19 02:51:44;;;;;;;31.15;17.92;;;1.80;99.90;;;;;;5054017;28;20035;-75
2023/10/19 02:54:17;;;;;;;32.38;19.25;;;1.80;99.90;;;;;;5042390;28;20029;-78
2023/10/19 02:56:47;;;;;;;33.20;18.83;;;1.90;99.90;;;;;;5053636;28;20032;-76
2023/10/19 02:59:15;;;;;;;38.90;19.85;;;1.90;99.90;;;;;;5054117;28;20025;-79
2023/10/19 03:01:44;;;;;;;37.15;17.90;;;1.90;99.90;;;;;;5055011;28;20017;-76
2023/10/19 03:04:12;;;;;;;33.78;19.02;;;1.90;99.90;;;;;;5053457;28;20029;-76
2023/10/19 03:06:40;;;;;;;36.15;19.83;;;1.90;99.90;;;;;;5054951;28;20421;-75
2023/10/19 03:09:13;;;;;;;33.67;17.73;;;1.80;99.90;;;;;;5053472;28;20033;-80
2023/10/19 03:11:41;;;;;;;;;;;1.90;99.90;;;;;;5055441;28;20021;-76
2023/10/19 03:14:08;;;;;;;31.92;17.90;;;1.80;99.90;;;;;;5054721;28;19951;-79
2023/10/19 03:16:35;;;;;;;33.78;19.30;;;1.80;99.90;;;;;;5060515;28;20053;-76
2023/10/19 03:19:01;;;;;;;29.60;17.65;;;1.70;99.90;;;;;;5055181;28;20052;-76
2023/10/19 03:21:27;;;;;;;32.45;17.02;;;1.70;99.90;;;;;;5054803;28;20497;-76
2023/10/19 03:23:56;;;;;;;34.05;18.55;;;1.70;99.90;;;;;;5052297;28;20064;-79
2023/10/19 03:26:36;;;;;;;31.48;18.02;;;1.70;99.90;;;;;;5061988;28;20025;-79
2023/10/19 03:29:07;;;;;;;36.40;19.85;;;1.70;99.90;;;;;;5049949;28;20017;-79
2023/10/19 03:31:37;;;;;;;34.22;18.77;;;1.70;99.90;;;;;;5053282;28;20021;-76
2023/10/19 03:34:06;;;;;;;32.85;18.98;;;1.70;99.90;;;;;;5053283;28;20055;-76
2023/10/19 03:36:32;;;;;;;33.08;18.33;;;1.70;99.90;;;;;;5036687;28;20127;-76
2023/10/19 03:39:04;;;;;;;33.78;18.77;;;1.80;99.90;;;;;;5051601;28;20071;-76
2023/10/19 03:41:35;;;;;;;38.33;19.02;;;1.70;99.90;;;;;;5054492;28;20100;-77
2023/10/19 03:44:01;;;;;;;37.40;19.00;;;1.70;99.90;;;;;;5053928;28;20522;-75
2023/10/19 03:46:30;;;;;;;34.28;19.02;;;1.70;99.90;;;;;;5055599;28;20044;-75
2023/10/19 03:49:03;;;;;;;31.27;17.88;;;1.80;99.90;;;;;;5052828;28;20041;-77
2023/10/19 03:51:39;;;;;;;;;;;1.90;99.90;;;;;;5054561;28;20013;-78
2023/10/19 03:54:21;;;;;;;30.77;18.90;;;1.90;99.90;;;;;;5055431;28;19905;-78
2023/10/19 03:56:50;;;;;;;35.35;20.00;;;1.90;99.90;;;;;;5045992;28;20490;-78
2023/10/19 03:59:17;;;;;;;38.58;19.48;;;1.90;99.90;;;;;;5048298;28;20467;-79
2023/10/19 04:01:43;;;;;;;39.78;21.70;;;2.00;99.90;;;;;;5052842;28;20062;-79
2023/10/19 04:04:09;;;;;;;37.67;20.70;;;1.90;99.90;;;;;;5053559;28;20089;-76
2023/10/19 04:06:36;;;;;;;34.33;19.90;;;2.00;99.90;;;;;;5052449;28;20037;-76
2023/10/19 04:09:05;;;;;;;35.50;20.58;;;2.00;99.90;;;;;;5054664;28;20021;-76
2023/10/19 04:11:48;;;;;;;31.67;19.98;;;2.00;99.90;;;;;;5054763;28;20258;-76
2023/10/19 04:14:15;;;;;;;34.10;19.70;;;2.00;99.90;;;;;;5052386;28;20025;-79
2023/10/19 04:16:44;;;;;;;40.97;21.73;;;2.10;99.90;;;;;;5053580;28;20033;-79
2023/10/19 04:19:16;;;;;;;33.20;19.67;;;2.20;99.90;;;;;;5051883;28;20028;-77
2023/10/19 04:21:46;;;;;;;34.27;17.63;;;2.20;99.90;;;;;;5052520;28;20032;-79
2023/10/19 04:24:13;;;;;;;32.05;18.25;;;2.20;99.90;;;;;;5056106;28;20024;-76
2023/10/19 04:26:39;;;;;;;32.20;18.85;;;2.30;99.90;;;;;;5061782;28;20021;-79
2023/10/19 04:29:11;;;;;;;30.33;17.40;;;2.40;99.90;;;;;;5058825;28;20017;-79
2023/10/19 04:31:55;;;;;;;31.67;20.05;;;2.40;99.90;;;;;;5052032;28;20032;-76
2023/10/19 04:34:21;;;;;;;33.55;17.23;;;2.40;99.90;;;;;;5053273;28;20474;-76
2023/10/19 04:36:52;;;;;;;34.10;18.67;;;2.50;99.90;;;;;;5053141;28;20029;-79
2023/10/19 04:39:20;;;;;;;28.98;18.48;;;2.50;99.90;;;;;;5050675;28;20495;-79
2023/10/19 04:41:48;;;;;;;31.48;18.52;;;2.60;99.90;;;;;;5054859;28;20069;-78
2023/10/19 04:44:15;;;;;;;29.30;16.75;;;2.60;99.90;;;;;;5068779;28;20047;-76
2023/10/19 04:46:41;;;;;;;33.00;18.40;;;2.60;99.90;;;;;;5053812;28;20398;-80
2023/10/19 04:49:07;;;;;;;34.97;17.85;;;2.70;99.90;;;;;;5051709;28;20466;-80
2023/10/19 04:51:36;;;;;;;34.03;18.63;;;2.70;99.90;;;;;;5052359;28;20051;-79
2023/10/19 04:54:02;;;;;;;33.45;19.27;;;2.80;99.90;;;;;;5049804;28;20436;-77
2023/10/19 04:56:28;;;;;;;33.03;19.45;;;2.80;99.90;;;;;;5055754;28;20059;-80
2023/10/19 04:58:53;;;;;;;36.15;20.17;;;2.90;99.90;;;;;;5052681;28;20530;-77
2023/10/19 05:01:19;;;;;;;33.60;18.30;;;2.90;99.90;;;;;;5052725;28;20029;-80
2023/10/19 05:03:45;;;;;;;30.08;16.67;;;2.90;99.90;;;;;;5043891;28;20025;-80
2023/10/19 05:06:11;;;;;;;27.83;17.48;;;3.00;99.90;;;;;;5051285;28;20390;-80
2023/10/19 05:08:37;;;;;;;26.98;16.55;;;3.00;99.90;;;;;;5046939;28;20489;-76
2023/10/19 05:11:03;;;;;;;38.97;19.80;;;3.00;99.90;;;;;;5051292;28;20017;-79
2023/10/19 05:13:31;;;;;;;31.08;18.75;;;3.10;99.90;;;;;;5052652;28;20529;-76
2023/10/19 05:15:58;;;;;;;29.38;17.10;;;3.20;99.90;;;;;;5047949;28;20374;-75
2023/10/19 05:18:25;;;;;;;28.98;17.73;;;3.20;99.90;;;;;;5048101;28;20029;-74
2023/10/19 05:20:55;;;;;;;35.67;18.45;;;3.20;99.90;;;;;;5049309;28;20071;-75
2023/10/19 05:23:25;;;;;;;30.98;17.80;;;3.30;99.90;;;;;;5047504;28;20039;-75
2023/10/19 05:25:53;;;;;;;31.60;20.45;;;3.30;99.90;;;;;;5058786;28;20132;-75
2023/10/19 05:28:21;;;;;;;31.75;19.73;;;3.30;99.90;;;;;;5053671;28;20502;-76
2023/10/19 05:30:48;;;;;;;29.88;17.63;;;3.40;99.90;;;;;;5041650;28;20029;-77
2023/10/19 05:33:14;;;;;;;35.03;19.48;;;3.40;99.90;;;;;;5050872;28;20124;-77
2023/10/19 05:35:40;;;;;;;26.95;17.10;;;3.40;99.90;;;;;;5051992;28;20618;-76
2023/10/19 05:38:12;;;;;;;30.63;18.27;;;3.40;99.90;;;;;;5051832;28;20033;-76
2023/10/19 05:40:38;;;;;;;33.70;19.33;;;3.40;99.90;;;;;;5050790;28;20025;-77
2023/10/19 05:43:05;;;;;;;28.80;17.25;;;3.40;99.90;;;;;;5050229;28;20120;-77
2023/10/19 05:45:36;;;;;;;31.83;17.13;;;3.40;99.90;;;;;;5032885;28;20361;-77
2023/10/19 05:48:03;;;;;;;35.90;19.08;;;3.40;99.90;;;;;;5050897;28;20045;-77
2023/10/19 05:50:29;;;;;;;30.02;17.77;;;3.40;99.90;;;;;;5051193;28;20067;-77
2023/10/19 05:52:55;;;;;;;31.90;17.90;;;3.50;99.90;;;;;;5050869;28;20032;-77
2023/10/19 05:55:21;;;;;;;28.77;18.40;;;3.50;99.90;;;;;;5049963;28;20021;-76
2023/10/19 05:57:47;;;;;;;34.40;19.90;;;3.50;99.90;;;;;;5043489;28;20055;-78
2023/10/19 06:00:13;;;;;;;32.38;19.98;;;3.40;99.90;;;;;;5045472;28;20060;-77
2023/10/19 06:02:43;;;;;;;30.55;18.70;;;3.50;99.90;;;;;;5049008;28;20021;-77
2023/10/19 06:05:09;;;;;;;28.67;17.83;;;3.50;99.90;;;;;;5050012;28;20467;-76
2023/10/19 06:07:35;;;;;;;30.90;19.27;;;3.40;99.90;;;;;;5054551;28;20059;-76
2023/10/19 06:10:04;;;;;;;32.75;17.98;;;3.40;99.90;;;;;;5054289;28;20021;-76
2023/10/19 06:12:34;;;;;;;24.80;17.00;;;3.40;99.90;;;;;;5034717;28;20044;-76
2023/10/19 06:15:00;;;;;;;31.38;18.35;;;3.40;99.90;;;;;;5053024;28;20402;-77
2023/10/19 06:17:26;;;;;;;34.33;21.15;;;3.40;99.90;;;;;;5048914;28;20028;-77
2023/10/19 06:19:52;;;;;;;34.05;19.77;;;3.40;99.90;;;;;;5051691;28;20429;-76
2023/10/19 06:22:18;;;;;;;33.17;19.23;;;3.40;99.90;;;;;;5051196;28;20060;-76
2023/10/19 06:24:43;;;;;;;35.78;19.38;;;3.40;99.90;;;;;;5051687;28;20017;-80
2023/10/19 06:27:10;;;;;;;33.90;20.25;;;3.50;99.90;;;;;;5050233;28;20448;-81
2023/10/19 06:29:36;;;;;;;29.38;19.88;;;3.50;99.90;;;;;;5052429;28;20104;-80
2023/10/19 06:32:02;;;;;;;36.00;20.85;;;3.50;99.90;;;;;;5050798;28;20128;-81
2023/10/19 06:34:28;;;;;;;37.33;19.95;;;3.50;99.90;;;;;;5052637;28;20030;-77
2023/10/19 06:36:54;;;;;;;38.03;20.73;;;3.60;99.90;;;;;;5052684;28;20044;-78
2023/10/19 06:39:23;;;;;;;35.58;20.70;;;3.60;99.90;;;;;;5054018;28;20029;-80
2023/10/19 06:41:49;;;;;;;33.83;19.55;;;3.70;99.90;;;;;;5053382;28;20028;-80
2023/10/19 06:44:16;;;;;;;34.78;21.45;;;3.70;99.90;;;;;;5055795;28;20057;-81
2023/10/19 06:46:43;;;;;;;31.83;19.30;;;3.80;99.90;;;;;;5050663;28;20021;-78
2023/10/19 06:49:09;;;;;;;37.03;20.92;;;3.80;99.90;;;;;;5051666;28;20027;-78
2023/10/19 06:51:36;;;;;;;35.42;22.50;;;3.90;99.90;;;;;;5053530;28;20033;-78
2023/10/19 06:54:02;;;;;;;40.45;20.25;;;4.00;99.90;;;;;;5052597;28;20028;-80
2023/10/19 06:56:28;;;;;;;32.53;20.00;;;4.00;99.90;;;;;;5051206;28;20494;-78
2023/10/19 06:58:54;;;;;;;33.83;18.73;;;4.10;99.90;;;;;;5051216;28;20021;-78
2023/10/19 07:01:25;;;;;;;33.95;19.10;;;4.20;99.90;;;;;;5052388;28;20017;-80
2023/10/19 07:03:53;;;;;;;37.50;19.88;;;4.30;99.90;;;;;;5054145;28;20494;-78
2023/10/19 07:06:19;;;;;;;27.83;17.90;;;4.40;99.90;;;;;;5054219;28;20025;-81
2023/10/19 07:08:46;;;;;;;25.88;15.88;;;4.40;99.90;;;;;;5054110;28;20033;-80
2023/10/19 07:11:12;;;;;;;24.63;16.17;;;4.50;99.90;;;;;;5054317;28;20060;-80
2023/10/19 07:13:39;;;;;;;29.08;16.48;;;4.60;99.90;;;;;;5052644;28;20021;-81
2023/10/19 07:16:06;;;;;;;31.20;18.27;;;4.70;99.90;;;;;;5052902;28;20505;-78
2023/10/19 07:18:31;;;;;;;30.58;17.70;;;4.70;99.90;;;;;;5052351;28;20021;-78
2023/10/19 07:21:03;;;;;;;31.52;19.08;;;4.80;99.90;;;;;;5054122;28;20024;-78
2023/10/19 07:23:28;;;;;;;33.17;18.05;;;4.80;99.90;;;;;;5050670;28;20434;-80
2023/10/19 07:25:55;;;;;;;28.45;17.90;;;4.80;99.90;;;;;;5052672;28;20025;-81
2023/10/19 07:28:26;;;;;;;33.42;18.58;;;4.90;99.90;;;;;;5054442;28;20479;-77
2023/10/19 07:30:52;;;;;;;26.40;19.52;;;4.90;99.90;;;;;;5048979;28;20470;-80
2023/10/19 07:33:19;;;;;;;28.58;18.52;;;4.90;99.90;;;;;;5052057;28;20486;-80
2023/10/19 07:35:54;;;;;;;33.40;19.60;;;4.90;99.90;;;;;;5052453;28;20032;-78
2023/10/19 07:38:22;;;;;;;30.88;19.45;;;4.90;99.90;;;;;;5051986;28;20036;-81
2023/10/19 07:40:48;;;;;;;33.70;20.25;;;5.00;99.90;;;;;;5053439;28;20655;-80
2023/10/19 07:43:14;;;;;;;29.20;19.77;;;5.00;99.90;;;;;;5051792;28;20375;-77
2023/10/19 07:45:39;;;;;;;29.00;19.25;;;5.00;99.90;;;;;;5052174;28;20019;-78
2023/10/19 07:48:06;;;;;;;34.47;20.08;;;5.00;99.90;;;;;;5049109;28;20041;-78
2023/10/19 07:50:35;;;;;;;33.53;20.20;;;5.00;99.90;;;;;;5052303;28;20075;-81
2023/10/19 07:53:01;;;;;;;32.10;19.52;;;5.10;99.90;;;;;;5053187;28;20086;-78
2023/10/19 07:55:26;;;;;;;32.85;19.95;;;5.10;99.90;;;;;;5051660;28;20474;-77
2023/10/19 07:57:52;;;;;;;35.13;21.80;;;5.20;99.90;;;;;;5054998;28;20121;-81
2023/10/19 08:00:19;;;;;;;32.65;21.23;;;5.20;99.90;;;;;;5050670;28;20021;-81
2023/10/19 08:02:46;;;;;;;39.53;22.25;;;5.20;99.90;;;;;;5053936;28;20102;-81
2023/10/19 08:05:15;;;;;;;36.63;22.15;;;5.20;99.90;;;;;;5053045;28;20035;-78
2023/10/19 08:07:42;;;;;;;37.38;21.92;;;5.30;99.90;;;;;;5048035;28;20032;-77
2023/10/19 08:10:10;;;;;;;36.90;20.92;;;5.30;99.90;;;;;;5052033;28;20371;-78
2023/10/19 08:12:37;;;;;;;35.97;19.73;;;5.30;99.90;;;;;;5052494;28;20032;-81
2023/10/19 08:15:03;;;;;;;32.30;18.98;;;5.40;99.90;;;;;;5068239;28;20033;-80
2023/10/19 08:17:30;;;;;;;34.15;18.95;;;5.50;99.90;;;;;;5052814;28;20505;-81
2023/10/19 08:19:56;;;;;;;33.50;19.17;;;5.60;99.90;;;;;;5051795;28;20017;-77
2023/10/19 08:22:23;;;;;;;29.05;18.63;;;5.60;99.90;;;;;;5051447;28;20025;-77
2023/10/19 08:24:49;;;;;;;32.30;19.63;;;5.60;99.90;;;;;;5051382;28;20091;-81
2023/10/19 08:27:17;;;;;;;31.58;18.35;;;5.70;99.90;;;;;;5052533;28;20105;-81
2023/10/19 08:29:43;;;;;;;29.70;18.58;;;5.80;99.90;;;;;;5052790;28;20017;-81
2023/10/19 08:32:09;;;;;;;34.67;20.20;;;5.80;99.90;;;;;;5051369;28;20047;-81
2023/10/19 08:34:39;;;;;;;33.72;18.58;;;5.80;99.90;;;;;;5051479;28;20024;-81
2023/10/19 08:37:05;;;;;;;32.97;19.15;;;5.90;99.90;;;;;;5051822;28;20037;-81
2023/10/19 08:39:36;;;;;;;35.15;18.17;;;6.00;99.90;;;;;;5052078;28;20021;-81
2023/10/19 08:42:04;;;;;;;29.85;18.35;;;6.10;99.90;;;;;;5052397;28;20074;-78
2023/10/19 08:44:30;;;;;;;26.13;16.90;;;6.10;99.90;;;;;;5052663;28;20036;-78
2023/10/19 08:46:57;;;;;;;26.30;16.95;;;6.20;99.90;;;;;;5053512;28;20052;-81
2023/10/19 08:49:23;;;;;;;28.92;18.05;;;6.30;99.90;;;;;;5050845;28;20033;-78
2023/10/19 08:51:51;;;;;;;30.67;18.25;;;6.40;99.90;;;;;;5047587;28;20132;-81
2023/10/19 08:54:17;;;;;;;24.98;16.20;;;6.50;99.90;;;;;;5051015;28;20021;-77
2023/10/19 08:56:44;;;;;;;33.55;16.85;;;6.60;99.90;;;;;;5052088;28;20662;-81
2023/10/19 08:59:11;;;;;;;31.60;17.85;;;6.60;99.90;;;;;;5051778;28;20481;-81
2023/10/19 09:01:37;;;;;;;22.55;16.42;;;6.70;99.90;;;;;;5051959;28;20025;-77
2023/10/19 09:04:05;;;;;;;25.55;16.20;;;6.70;99.90;;;;;;5048938;28;20107;-81
2023/10/19 09:06:41;;;;;;;26.15;15.35;;;6.80;99.90;;;;;;5048868;28;20104;-81
2023/10/19 09:09:09;;;;;;;27.70;15.73;;;6.90;99.90;;;;;;5051915;28;20029;-81
2023/10/19 09:11:35;;;;;;;28.13;17.52;;;7.00;99.90;;;;;;5052059;28;20021;-78
2023/10/19 09:14:03;;;;;;;24.38;13.77;;;7.10;99.90;;;;;;5049698;28;20548;-80
2023/10/19 09:16:30;;;;;;;23.40;13.63;;;7.20;99.90;;;;;;5051771;28;20508;-81
2023/10/19 09:18:56;;;;;;;21.25;14.20;;;7.20;99.90;;;;;;5051814;28;20100;-77
2023/10/19 09:21:25;;;;;;;19.80;13.65;;;7.30;99.90;;;;;;5050641;28;20029;-80
2023/10/19 09:23:55;;;;;;;21.17;13.82;;;7.40;99.90;;;;;;5051463;28;20017;-81
2023/10/19 09:26:22;;;;;;;20.80;11.50;;;7.40;99.90;;;;;;5051870;28;20095;-78
2023/10/19 09:28:50;;;;;;;17.95;10.93;;;7.40;99.90;;;;;;5050369;28;20071;-78
2023/10/19 09:31:17;;;;;;;18.15;11.18;;;7.50;99.90;;;;;;5048596;28;20025;-77
2023/10/19 09:33:46;;;;;;;18.00;11.13;;;7.50;99.90;;;;;;5051389;28;20013;-78
2023/10/19 09:36:13;;;;;;;19.02;10.55;;;7.50;99.90;;;;;;5050256;28;20032;-81
2023/10/19 09:38:50;;;;;;;16.63;11.48;;;7.50;99.90;;;;;;5054440;28;20024;-82
2023/10/19 09:41:22;;;;;;;19.00;11.30;;;7.60;99.90;;;;;;5052487;28;20391;-77
2023/10/19 09:43:49;;;;;;;19.95;10.57;;;7.70;99.90;;;;;;5052621;28;20048;-78
2023/10/19 09:46:38;;;;;;;18.05;10.52;;;7.80;99.90;;;;;;5052367;28;20386;-78
2023/10/19 09:49:06;;;;;;;17.08;10.20;;;7.80;99.90;;;;;;5054645;28;20083;-78
2023/10/19 09:51:33;;;;;;;14.68;9.75;;;7.90;99.90;;;;;;5056792;28;20451;-78
2023/10/19 09:54:12;;;;;;;18.60;10.05;;;7.90;99.90;;;;;;5054850;28;20159;-78
2023/10/19 09:56:48;;;;;;;14.30;10.40;;;8.10;99.90;;;;;;5054579;28;20047;-79
2023/10/19 09:59:38;;;;;;;17.67;11.20;;;8.10;99.90;;;;;;5051956;28;20075;-78
2023/10/19 10:02:15;;;;;;;20.15;11.85;;;8.10;99.90;;;;;;5054448;28;20047;-78
2023/10/19 10:04:41;;;;;;;17.90;10.65;;;8.20;99.90;;;;;;5054466;28;20028;-81
2023/10/19 10:07:09;;;;;;;16.10;10.93;;;8.20;99.90;;;;;;5057914;28;20089;-81
2023/10/19 10:09:39;;;;;;;18.40;11.25;;;8.20;99.90;;;;;;5055881;28;20052;-75
2023/10/19 10:12:23;;;;;;;21.45;11.75;;;8.30;99.90;;;;;;5058208;28;20021;-79
2023/10/19 10:15:07;;;;;;;20.45;13.38;;;8.40;99.90;;;;;;5054356;28;20021;-79
2023/10/19 10:17:39;;;;;;;22.27;14.18;;;8.40;99.90;;;;;;5054737;28;20546;-79
2023/10/19 10:20:13;;;;;;;22.08;13.95;;;8.60;99.90;;;;;;5055254;28;20059;-76
2023/10/19 10:22:41;;;;;;;21.70;13.13;;;8.60;99.90;;;;;;5051066;28;20051;-76
2023/10/19 10:25:07;;;;;;;23.05;13.20;;;8.80;99.90;;;;;;5053619;28;20021;-76
2023/10/19 10:27:36;;;;;;;29.67;15.90;;;8.90;99.90;;;;;;5054816;28;20434;-76
2023/10/19 10:30:10;;;;;;;40.88;20.67;;;9.00;99.90;;;;;;5051999;28;20021;-76
2023/10/19 10:32:47;;;;;;;31.10;16.67;;;9.00;99.90;;;;;;5052724;28;20037;-76
2023/10/19 10:35:41;;;;;;;25.00;14.13;;;9.10;99.90;;;;;;5051575;28;20017;-77
2023/10/19 10:38:13;;;;;;;34.22;17.52;;;9.20;99.90;;;;;;5049139;28;20044;-75
2023/10/19 10:40:47;;;;;;;21.52;12.85;;;9.30;99.90;;;;;;5055405;28;20031;-74
2023/10/19 10:43:13;;;;;;;17.48;11.27;;;9.20;99.90;;;;;;5051338;28;20098;-75
2023/10/19 10:45:39;;;;;;;21.08;12.50;;;9.20;99.90;;;;;;5052155;28;20025;-75
2023/10/19 10:48:12;;;;;;;16.65;11.68;;;9.20;99.90;;;;;;5052579;28;20045;-75
2023/10/19 10:50:38;;;;;;;20.15;12.70;;;9.10;99.90;;;;;;5053837;28;20382;-75
2023/10/19 10:53:05;;;;;;;19.60;12.70;;;9.10;99.90;;;;;;5050939;28;20048;-75
2023/10/19 10:55:32;;;;;;;23.05;12.43;;;9.10;99.90;;;;;;5051851;28;20056;-74
2023/10/19 10:57:59;;;;;;;20.00;12.27;;;9.10;99.90;;;;;;5052929;28;20060;-75
2023/10/19 11:00:26;;;;;;;21.13;12.77;;;9.00;99.90;;;;;;5050143;28;20082;-77
2023/10/19 11:03:03;;;;;;;18.98;13.98;;;9.00;99.90;;;;;;5049427;28;20037;-76
2023/10/19 11:05:30;;;;;;;19.77;14.57;;;9.00;99.90;;;;;;5051812;28;20033;-76
2023/10/19 11:08:06;;;;;;;17.13;12.63;;;9.00;99.90;;;;;;5049298;28;20041;-75
2023/10/19 11:10:32;;;;;;;21.67;13.63;;;9.10;99.90;;;;;;5049788;28;20032;-75
2023/10/19 11:13:08;;;;;;;19.70;13.23;;;9.10;99.90;;;;;;5052602;28;20487;-76
2023/10/19 11:15:36;;;;;;;22.67;13.05;;;9.20;99.90;;;;;;5049310;28;20040;-75
2023/10/19 11:18:03;;;;;;;21.63;14.55;;;9.20;99.90;;;;;;5047030;28;20075;-75
2023/10/19 11:20:29;;;;;;;21.65;13.65;;;9.20;99.90;;;;;;5050966;28;20100;-75
2023/10/19 11:22:57;;;;;;;20.73;14.20;;;9.30;99.90;;;;;;5052011;28;20052;-75
2023/10/19 11:25:22;;;;;;;24.15;14.65;;;9.30;99.90;;;;;;5052583;28;20394;-75
2023/10/19 11:27:48;;;;;;;22.00;13.65;;;9.40;99.90;;;;;;5050882;28;20045;-76
2023/10/19 11:30:31;;;;;;;20.15;13.55;;;9.40;99.90;;;;;;5053451;28;20009;-75
2023/10/19 11:32:59;;;;;;;20.73;13.85;;;9.40;99.90;;;;;;5048396;28;20110;-76
2023/10/19 11:35:34;;;;;;;20.90;13.35;;;9.40;99.90;;;;;;5051882;28;20494;-75
2023/10/19 11:38:02;;;;;;;21.77;13.98;;;9.40;99.90;;;;;;5052765;28;20482;-75
2023/10/19 11:40:28;;;;;;;26.13;15.90;;;9.40;99.90;;;;;;5044176;28;20534;-75
2023/10/19 11:42:58;;;;;;;29.05;15.32;;;9.40;99.90;;;;;;5049124;28;20052;-77
2023/10/19 11:45:24;;;;;;;26.13;15.70;;;9.40;99.90;;;;;;5050819;28;20308;-76
2023/10/19 11:47:53;;;;;;;27.17;15.40;;;9.40;99.90;;;;;;5048061;28;20072;-77
2023/10/19 11:50:19;;;;;;;31.75;17.67;;;9.40;99.90;;;;;;5049540;28;20398;-76
2023/10/19 11:52:46;;;;;;;25.52;17.33;;;9.40;99.90;;;;;;5050842;28;20032;-76
2023/10/19 11:55:15;;;;;;;30.25;17.75;;;9.40;99.90;;;;;;5050411;28;20053;-76
2023/10/19 11:57:44;;;;;;;30.67;17.08;;;9.50;99.90;;;;;;5051910;28;20433;-77
2023/10/19 12:00:13;;;;;;;28.45;16.70;;;9.40;99.90;;;;;;5049225;28;20028;-76
2023/10/19 12:02:43;;;;;;;27.92;17.60;;;9.40;99.90;;;;;;5050938;28;20024;-76
2023/10/19 12:05:12;;;;;;;30.83;16.67;;;9.40;99.90;;;;;;5050528;28;20460;-76
2023/10/19 12:07:38;;;;;;;31.35;18.45;;;9.40;99.90;;;;;;5052126;28;20032;-76
2023/10/19 12:10:09;;;;;;;29.80;17.70;;;9.40;99.90;;;;;;5050755;28;20025;-77
2023/10/19 12:12:38;;;;;;;28.75;18.45;;;9.50;99.90;;;;;;5052274;28;20047;-76
2023/10/19 12:15:05;;;;;;;31.33;18.73;;;9.40;99.90;;;;;;5049752;28;20033;-76
2023/10/19 12:17:34;;;;;;;29.20;18.10;;;9.50;99.90;;;;;;5052217;28;20043;-76
2023/10/19 12:20:00;;;;;;;28.70;18.73;;;9.50;99.90;;;;;;5050244;28;20076;-76
2023/10/19 12:22:32;;;;;;;27.85;19.63;;;9.40;99.90;;;;;;5052832;28;20052;-76
2023/10/19 12:24:59;;;;;;;29.38;19.20;;;9.40;99.90;;;;;;5047500;28;20076;-77
2023/10/19 12:27:25;;;;;;;26.83;18.20;;;9.40;99.90;;;;;;5063842;28;20068;-77
2023/10/19 12:29:54;;;;;;;25.88;18.83;;;9.30;99.90;;;;;;5051201;28;20126;-77
2023/10/19 12:32:21;;;;;;;29.33;17.08;;;9.30;99.90;;;;;;5049366;28;20025;-77
2023/10/19 12:34:52;;;;;;;30.40;17.77;;;9.30;99.90;;;;;;5044891;28;20471;-76
2023/10/19 12:37:18;;;;;;;25.92;17.98;;;9.30;99.90;;;;;;5050260;28;20033;-76
2023/10/19 12:39:47;;;;;;;30.25;18.33;;;9.30;99.90;;;;;;5051608;28;20102;-78
2023/10/19 12:42:14;;;;;;;23.38;17.30;;;9.20;99.90;;;;;;5049991;28;20017;-77
2023/10/19 12:44:41;;;;;;;29.42;17.88;;;9.10;99.90;;;;;;5050187;28;20036;-81
2023/10/19 12:47:10;;;;;;;31.90;18.38;;;9.10;99.90;;;;;;5048196;28;20577;-81
2023/10/19 12:49:37;;;;;;;32.08;19.73;;;9.10;99.90;;;;;;5049228;28;20029;-82
2023/10/19 12:52:03;;;;;;;31.42;19.42;;;9.10;99.90;;;;;;5051668;28;20029;-82
2023/10/19 12:54:30;;;;;;;32.70;22.30;;;9.10;99.90;;;;;;5048359;28;20037;-83
2023/10/19 12:56:55;;;;;;;32.05;20.95;;;9.10;99.90;;;;;;5049690;28;20032;-81